^^
Your Local Weather - Clay, NY Station Historical Data
Daily Summary for January 21, 2018 Units:  Metric    English   Both
« Previous Day
Next Day »
Daily Weekly Monthly Yearly Custom
  High: Low: Average:
Temperature: 5.9 °C -3.2 °C 1.7 °C
Dew Point: -0.2 °C -5.1 °C -1.9 °C
Humidity: 89% 64% 77%
Wind Speed: 4.8km/h 0km/h 1km/h
Wind Gust: 9.7km/h - -
Wind- - ESE
Pressure: 1020.2 hPa 1016.1 hPa -
Precipitation: 1.02 mm    
Historical Graphs
 
 
Tabular Data for January 21, 2018
Time Temperature Dew Point Pressure Wind Wind Speed Wind Gust Humidity Rainfall Rate (Hourly) solar
00:05 0.8 °C -2.8 °C 1016.1 hPa WSW 3.2 km/h 9.7 km/h 77% 0 mm 0 W/m2
00:12 0.8 °C -2.7 °C 1016.1 hPa SW 3.2 km/h 3.2 km/h 77% 0 mm 0 W/m2
00:18 0.8 °C -2.7 °C 1016.5 hPa SW 1.6 km/h 3.2 km/h 77% 0 mm 0 W/m2
00:24 0.8 °C -2.8 °C 1016.5 hPa SW 1.6 km/h 3.2 km/h 77% 0 mm 0 W/m2
00:30 0.8 °C -2.8 °C 1016.5 hPa SW 1.6 km/h 1.6 km/h 77% 0 mm 0 W/m2
00:35 0.8 °C -2.8 °C 1016.5 hPa WSW 1.6 km/h 3.2 km/h 77% 0 mm 0 W/m2
00:53 0.6 °C -3 °C 1016.8 hPa WSW 1.6 km/h 3.2 km/h 77% 0 mm 0 W/m2
00:59 0.4 °C -3.2 °C 1016.8 hPa Calm     77% 0 mm 0 W/m2
01:06 0.2 °C -3.4 °C 1016.8 hPa Calm     77% 0 mm 0 W/m2
01:12 -0.1 °C -3.4 °C 1016.8 hPa Calm     78% 0 mm 0 W/m2
01:18 -0.3 °C -3.7 °C 1016.8 hPa Calm     78% 0 mm 0 W/m2
01:24 -0.6 °C -4 °C 1016.8 hPa Calm     78% 0 mm 0 W/m2
01:30 -1.1 °C -4.4 °C 1016.8 hPa Calm     78% 0 mm 0 W/m2
01:36 -1.5 °C -4.7 °C 1016.8 hPa Calm     79% 0 mm 0 W/m2
01:42 -1.7 °C -4.6 °C 1016.8 hPa Calm     81% 0 mm 0 W/m2
01:48 -1.9 °C -4.7 °C 1017.2 hPa Calm     81% 0 mm 0 W/m2
01:54 -2.1 °C -4.7 °C 1016.8 hPa Calm     82% 0 mm 0 W/m2
02:00 -2.2 °C -4.9 °C 1017.2 hPa Calm     82% 0 mm 0 W/m2
02:06 -2.3 °C -4.8 °C 1017.2 hPa Calm     83% 0 mm 0 W/m2
02:12 -2.5 °C -4.8 °C 1017.2 hPa Calm     84% 0 mm 0 W/m2
02:18 -2.5 °C -4.8 °C 1017.5 hPa Calm     84% 0 mm 0 W/m2
02:24 -2.6 °C -4.7 °C 1017.5 hPa Calm     85% 0 mm 0 W/m2
02:30 -2.6 °C -4.7 °C 1017.5 hPa Calm     85% 0 mm 0 W/m2
02:48 -2.3 °C -4.3 °C 1017.5 hPa Calm     86% 0 mm 0 W/m2
02:54 -2.1 °C -4.1 °C 1017.5 hPa Calm     86% 0 mm 0 W/m2
03:00 -1.8 °C -3.7 °C 1017.5 hPa Calm     87% 0 mm 0 W/m2
03:06 -1.8 °C -3.8 °C 1017.5 hPa Calm     86% 0 mm 0 W/m2
03:12 -1.8 °C -3.9 °C 1017.5 hPa Calm     86% 0 mm 0 W/m2
03:24 -1.8 °C -3.9 °C 1017.5 hPa Calm     86% 0 mm 0 W/m2
03:30 -1.6 °C -3.4 °C 1017.8 hPa Calm   3.2 km/h 87% 0 mm 0 W/m2
03:36 -1.1 °C -2.9 °C 1017.5 hPa WSW 1.6 km/h 3.2 km/h 87% 0 mm 0 W/m2
03:42 -0.7 °C -2.8 °C 1017.8 hPa Calm   3.2 km/h 86% 0 mm 0 W/m2
03:48 -0.5 °C -2.7 °C 1017.8 hPa Calm   3.2 km/h 85% 0 mm 0 W/m2
03:54 -0.3 °C -2.5 °C 1017.5 hPa Calm   1.6 km/h 85% 0 mm 0 W/m2
04:00 -0.1 °C -2.4 °C 1017.8 hPa WSW 1.6 km/h 1.6 km/h 84% 0 mm 0 W/m2
04:06 0.1 °C -2.4 °C 1017.8 hPa Calm   1.6 km/h 83% 0 mm 0 W/m2
04:12 0.2 °C -2.5 °C 1017.8 hPa Calm     82% 0 mm 0 W/m2
04:18 0.3 °C -2.4 °C 1017.8 hPa Calm   1.6 km/h 82% 0 mm 0 W/m2
04:24 0.4 °C -2.4 °C 1018.2 hPa WSW 1.6 km/h 3.2 km/h 81% 0 mm 0 W/m2
04:30 0.6 °C -2.3 °C 1017.8 hPa WSW 1.6 km/h 3.2 km/h 81% 0 mm 0 W/m2
04:36 0.6 °C -2.4 °C 1017.8 hPa WSW 1.6 km/h 4.8 km/h 80% 0 mm 0 W/m2
04:42 0.7 °C -2.3 °C 1017.8 hPa WSW 3.2 km/h 3.2 km/h 80% 0 mm 0 W/m2
04:48 0.8 °C -2.3 °C 1017.8 hPa WSW 1.6 km/h 3.2 km/h 80% 0 mm 0 W/m2
04:54 0.8 °C -2.4 °C 1017.8 hPa WSW 1.6 km/h 3.2 km/h 79% 0 mm 0 W/m2
05:00 0.8 °C -2.4 °C 1017.8 hPa Calm     79% 0 mm 0 W/m2
05:06 0.8 °C -2.4 °C 1018.2 hPa Calm   1.6 km/h 79% 0 mm 0 W/m2
05:12 0.7 °C -2.3 °C 1018.2 hPa Calm   1.6 km/h 80% 0 mm 0 W/m2
05:18 0.7 °C -2.4 °C 1018.2 hPa Calm   3.2 km/h 80% 0 mm 0 W/m2
05:24 0.6 °C -2.4 °C 1018.2 hPa Calm   1.6 km/h 80% 0 mm 0 W/m2
05:30 0.5 °C -2.6 °C 1018.2 hPa Calm     80% 0 mm 0 W/m2
05:36 0.4 °C -2.6 °C 1018.2 hPa Calm     80% 0 mm 0 W/m2
05:42 0.4 °C -2.7 °C 1018.5 hPa Calm     80% 0 mm 0 W/m2
05:48 0.3 °C -2.7 °C 1018.5 hPa Calm     80% 0 mm 0 W/m2
05:54 0.3 °C -2.8 °C 1018.5 hPa Calm     80% 0 mm 0 W/m2
06:00 0.2 °C -2.7 °C 1018.8 hPa Calm     81% 0 mm 0 W/m2
06:06 0 °C -2.9 °C 1019.2 hPa Calm     81% 0 mm 0 W/m2
06:12 -0.2 °C -3.1 °C 1019.2 hPa Calm     81% 0 mm 0 W/m2
06:18 -0.3 °C -3.2 °C 1019.2 hPa Calm     81% 0 mm 0 W/m2
06:24 -0.4 °C -3.1 °C 1019.2 hPa Calm     82% 0 mm 0 W/m2
06:30 -0.5 °C -3.2 °C 1019.2 hPa Calm     82% 0 mm 0 W/m2
06:36 -0.7 °C -3.3 °C 1019.2 hPa Calm     82% 0 mm 0 W/m2
06:42 -0.9 °C -3.6 °C 1019.2 hPa Calm     82% 0 mm 0 W/m2
06:50 -1.2 °C -3.7 °C 1019.2 hPa Calm     83% 0 mm 0 W/m2
06:56 -1.4 °C -3.9 °C 1019.2 hPa Calm     83% 0 mm 0 W/m2
07:02 -1.8 °C -4.3 °C 1019.2 hPa Calm     83% 0 mm 0 W/m2
07:08 -2 °C -4.3 °C 1019.2 hPa Calm     84% 0 mm 0 W/m2
07:14 -2.2 °C -4.5 °C 1019.2 hPa Calm     84% 0 mm 0 W/m2
07:20 -2.4 °C -4.7 °C 1019.2 hPa Calm     84% 0 mm 0 W/m2
07:26 -2.6 °C -4.8 °C 1019.2 hPa Calm     85% 0 mm 0 W/m2
07:32 -2.8 °C -4.9 °C 1019.2 hPa Calm     85% 0 mm 0 W/m2
07:38 -2.9 °C -5.1 °C 1019.2 hPa Calm     85% 0 mm 5 W/m2
07:44 -3 °C -5 °C 1019.2 hPa Calm     86% 0 mm 7 W/m2
07:50 -3.1 °C -5.1 °C 1019.5 hPa Calm     86% 0 mm 11 W/m2
07:56 -3.1 °C -5.1 °C 1019.5 hPa Calm     86% 0 mm 21 W/m2
08:02 -3.2 °C -5 °C 1019.5 hPa Calm     87% 0 mm 35 W/m2
08:08 -3.2 °C -5 °C 1019.5 hPa Calm     87% 0 mm 37 W/m2
08:14 -3.1 °C -4.9 °C 1019.5 hPa Calm     87% 0 mm 37 W/m2
08:20 -3 °C -4.8 °C 1019.5 hPa Calm     87% 0 mm 46 W/m2
08:26 -2.8 °C -4.6 °C 1019.9 hPa Calm     88% 0 mm 42 W/m2
08:32 -2.7 °C -4.4 °C 1020.2 hPa Calm     88% 0 mm 91 W/m2
08:38 -2.5 °C -4.2 °C 1020.2 hPa Calm     88% 0 mm 125 W/m2
08:44 -2.2 °C -3.7 °C 1020.2 hPa Calm     89% 0 mm 132 W/m2
08:50 -1.9 °C -3.6 °C 1020.2 hPa Calm     88% 0 mm 148 W/m2
08:56 -1.5 °C -3.1 °C 1020.2 hPa Calm     89% 0 mm 163 W/m2
09:02 -1.2 °C -2.9 °C 1020.2 hPa Calm     88% 0 mm 183 W/m2
09:08 -0.8 °C -2.5 °C 1020.2 hPa Calm     88% 0 mm 202 W/m2
09:14 -0.4 °C -2.6 °C 1020.2 hPa Calm     85% 0 mm 216 W/m2
09:20 0 °C -2.6 °C 1020.2 hPa Calm     83% 0 mm 236 W/m2
09:26 0.6 °C -2.2 °C 1020.2 hPa Calm     82% 0 mm 255 W/m2
09:32 1.8 °C -1.5 °C 1020.2 hPa Calm     79% 0 mm 271 W/m2
09:38 2.3 °C -1.4 °C 1020.2 hPa Calm     76% 0 mm 281 W/m2
09:44 2.7 °C -1.3 °C 1020.2 hPa Calm     75% 0 mm 272 W/m2
09:50 2.8 °C -1.2 °C 1020.2 hPa Calm   1.6 km/h 75% 0 mm 267 W/m2
09:56 3.1 °C -1.3 °C 1020.2 hPa Calm   1.6 km/h 73% 0 mm 271 W/m2
10:02 3.4 °C -0.9 °C 1020.2 hPa Calm     73% 0 mm 313 W/m2
10:08 3.8 °C -0.8 °C 1020.2 hPa Calm   1.6 km/h 72% 0 mm 338 W/m2
10:14 4.1 °C -0.9 °C 1020.2 hPa WSW 1.6 km/h 1.6 km/h 70% 0 mm 352 W/m2
10:20 4.3 °C -0.9 °C 1020.2 hPa WSW 1.6 km/h 1.6 km/h 69% 0 mm 332 W/m2
10:26 4.3 °C -0.9 °C 1020.2 hPa WSW 1.6 km/h 4.8 km/h 69% 0 mm 348 W/m2
10:32 4.3 °C -0.9 °C 1020.2 hPa West 3.2 km/h 3.2 km/h 69% 0 mm 332 W/m2
10:38 4.4 °C -1 °C 1020.2 hPa South 1.6 km/h 3.2 km/h 68% 0 mm 251 W/m2
10:44 4.3 °C -0.8 °C 1020.2 hPa Calm   1.6 km/h 69% 0 mm 167 W/m2
10:50 4 °C -1 °C 1020.2 hPa South 1.6 km/h 3.2 km/h 70% 0 mm 141 W/m2
10:56 3.8 °C -1.2 °C 1020.2 hPa South 1.6 km/h 3.2 km/h 70% 0 mm 127 W/m2
11:03 3.8 °C -0.9 °C 1020.2 hPa Calm   1.6 km/h 71% 0 mm 169 W/m2
11:08 3.9 °C -0.8 °C 1020.2 hPa Calm   1.6 km/h 71% 0 mm 206 W/m2
11:14 4.2 °C -0.8 °C 1020.2 hPa Calm     70% 0 mm 199 W/m2
11:20 4.5 °C -0.7 °C 1019.9 hPa Calm   1.6 km/h 69% 0 mm 216 W/m2
11:26 4.4 °C -0.8 °C 1019.9 hPa Calm     69% 0 mm 223 W/m2
11:32 4.5 °C -0.7 °C 1019.9 hPa Calm   1.6 km/h 69% 0 mm 246 W/m2
11:38 4.9 °C -0.5 °C 1019.9 hPa Calm   1.6 km/h 68% 0 mm 278 W/m2
11:44 5.1 °C -0.6 °C 1019.5 hPa Calm   1.6 km/h 67% 0 mm 271 W/m2
11:50 5 °C -0.6 °C 1019.5 hPa Calm     67% 0 mm 255 W/m2
11:56 5.2 °C -0.7 °C 1019.5 hPa Calm     66% 0 mm 360 W/m2
12:02 4.9 °C -0.9 °C 1019.5 hPa Calm   1.6 km/h 66% 0 mm 285 W/m2
12:08 5 °C -0.6 °C 1019.5 hPa Calm   3.2 km/h 67% 0 mm 438 W/m2
12:14 5.3 °C -0.3 °C 1019.2 hPa Calm   1.6 km/h 67% 0 mm 496 W/m2
12:20 5.8 °C -0.4 °C 1019.2 hPa NW 1.6 km/h 4.8 km/h 64% 0 mm 454 W/m2
12:26 5.9 °C -0.2 °C 1019.2 hPa SE 1.6 km/h 4.8 km/h 65% 0 mm 454 W/m2
12:32 5.6 °C -0.4 °C 1019.2 hPa SE 1.6 km/h 4.8 km/h 65% 0 mm 236 W/m2
12:38 5.3 °C -0.6 °C 1019.2 hPa SE 1.6 km/h 4.8 km/h 66% 0 mm 248 W/m2
12:44 5.2 °C -0.7 °C 1019.2 hPa SE 1.6 km/h 3.2 km/h 66% 0 mm 237 W/m2
12:50 5.3 °C -0.3 °C 1019.2 hPa SE 1.6 km/h 1.6 km/h 67% 0 mm 229 W/m2
12:56 5.6 °C -0.3 °C 1018.8 hPa Calm   1.6 km/h 66% 0 mm 211 W/m2
13:02 5.4 °C -0.4 °C 1018.8 hPa SSE 3.2 km/h 4.8 km/h 66% 0 mm 223 W/m2
13:08 5.4 °C -0.2 °C 1018.8 hPa West 3.2 km/h 4.8 km/h 67% 0 mm 251 W/m2
13:14 5.5 °C -0.3 °C 1018.5 hPa South 1.6 km/h 4.8 km/h 66% 0 mm 301 W/m2
13:20 5.6 °C -0.2 °C 1018.5 hPa South 3.2 km/h 3.2 km/h 66% 0 mm 283 W/m2
13:26 5.7 °C -0.3 °C 1018.5 hPa South 1.6 km/h 3.2 km/h 65% 0 mm 387 W/m2
13:32 5.8 °C -0.4 °C 1018.5 hPa NE 3.2 km/h 3.2 km/h 64% 0 mm 367 W/m2
13:38 5.9 °C -0.3 °C 1018.5 hPa NE 3.2 km/h 6.4 km/h 64% 0 mm 255 W/m2
13:44 5.8 °C -0.5 °C 1018.5 hPa ENE 3.2 km/h 3.2 km/h 64% 0 mm 243 W/m2
13:50 5.6 °C -0.5 °C 1018.5 hPa ESE 1.6 km/h 4.8 km/h 65% 0 mm 207 W/m2
13:56 5.4 °C -0.4 °C 1018.5 hPa East 3.2 km/h 4.8 km/h 66% 0 mm 183 W/m2
14:02 5.4 °C -0.4 °C 1018.5 hPa East 1.6 km/h 4.8 km/h 66% 0 mm 160 W/m2
14:08 5.4 °C -0.4 °C 1018.5 hPa ENE 3.2 km/h 4.8 km/h 66% 0 mm 149 W/m2
14:14 5.2 °C -0.6 °C 1018.5 hPa NE 3.2 km/h 4.8 km/h 66% 0 mm 125 W/m2
14:20 5.1 °C -0.6 °C 1018.5 hPa ENE 3.2 km/h 4.8 km/h 67% 0 mm 125 W/m2
14:26 4.8 °C -0.8 °C 1018.5 hPa ENE 4.8 km/h 4.8 km/h 67% 0 mm 118 W/m2
14:32 4.7 °C -0.7 °C 1018.5 hPa NE 4.8 km/h 4.8 km/h 68% 0 mm 98 W/m2
14:38 4.6 °C -0.7 °C 1018.5 hPa NE 3.2 km/h 6.4 km/h 69% 0 mm 84 W/m2
14:44 4.5 °C -0.7 °C 1018.5 hPa NE 3.2 km/h 6.4 km/h 69% 0 mm 79 W/m2
14:50 4.4 °C -0.8 °C 1018.5 hPa NE 3.2 km/h 6.4 km/h 69% 0 mm 79 W/m2
14:56 4.3 °C -0.8 °C 1018.5 hPa NE 3.2 km/h 6.4 km/h 69% 0 mm 76 W/m2
15:08 4.2 °C -0.8 °C 1018.5 hPa ENE 4.8 km/h 6.4 km/h 70% 0 mm 56 W/m2
15:14 4.1 °C -0.9 °C 1018.5 hPa ENE 3.2 km/h 4.8 km/h 70% 0 mm 56 W/m2
15:20 4 °C -0.8 °C 1018.5 hPa ENE 3.2 km/h 3.2 km/h 71% 0 mm 58 W/m2
15:26 4 °C -0.8 °C 1018.5 hPa ENE 1.6 km/h 3.2 km/h 71% 0 mm 49 W/m2
15:32 3.9 °C -0.8 °C 1018.5 hPa ENE 1.6 km/h 4.8 km/h 71% 0 mm 44 W/m2
15:38 3.9 °C -0.8 °C 1018.5 hPa NE 3.2 km/h 4.8 km/h 71% 0 mm 40 W/m2
15:44 3.9 °C -0.8 °C 1018.5 hPa ENE 3.2 km/h 4.8 km/h 71% 0 mm 42 W/m2
15:50 3.9 °C -0.9 °C 1018.5 hPa ENE 3.2 km/h 3.2 km/h 71% 0 mm 39 W/m2
15:56 3.9 °C -0.9 °C 1018.5 hPa ENE 3.2 km/h 4.8 km/h 71% 0 mm 40 W/m2
16:02 3.8 °C -0.9 °C 1018.5 hPa ENE 1.6 km/h 4.8 km/h 71% 0 mm 39 W/m2
16:08 3.8 °C -0.8 °C 1018.8 hPa ENE 1.6 km/h 4.8 km/h 72% 0 mm 33 W/m2
16:14 3.8 °C -0.8 °C 1018.8 hPa ENE 3.2 km/h 4.8 km/h 72% 0 mm 32 W/m2
16:20 3.8 °C -0.8 °C 1018.8 hPa ENE 3.2 km/h 3.2 km/h 72% 0 mm 26 W/m2
16:26 3.7 °C -0.9 °C 1018.8 hPa East 3.2 km/h 4.8 km/h 72% 0 mm 21 W/m2
16:32 3.6 °C -0.9 °C 1018.8 hPa ENE 3.2 km/h 3.2 km/h 72% 0 mm 14 W/m2
16:38 3.6 °C -0.9 °C 1018.8 hPa ENE 3.2 km/h 4.8 km/h 72% 0 mm 11 W/m2
16:44 3.6 °C -0.9 °C 1018.8 hPa ENE 3.2 km/h 8 km/h 72% 0 mm 9 W/m2
16:50 3.5 °C -0.9 °C 1018.8 hPa ENE 3.2 km/h 3.2 km/h 73% 0 mm 5 W/m2
16:56 3.5 °C -0.9 °C 1018.8 hPa ENE 1.6 km/h 3.2 km/h 73% 0 mm 0 W/m2
17:02 3.4 °C -0.9 °C 1018.8 hPa ENE 1.6 km/h 4.8 km/h 73% 0 mm 0 W/m2
17:08 3.4 °C -1 °C 1018.8 hPa East 1.6 km/h 4.8 km/h 73% 0 mm 0 W/m2
17:14 3.4 °C -1 °C 1018.8 hPa East 1.6 km/h 3.2 km/h 73% 0 mm 0 W/m2
17:20 3.3 °C -1.1 °C 1018.5 hPa East 1.6 km/h 1.6 km/h 73% 0 mm 0 W/m2
17:32 3.2 °C -0.9 °C 1018.8 hPa Calm     74% 0 mm 0 W/m2
17:38 3.2 °C -1 °C 1018.5 hPa Calm   1.6 km/h 74% 0 mm 0 W/m2
17:44 3.2 °C -0.8 °C 1018.5 hPa East 1.6 km/h 3.2 km/h 75% 0 mm 0 W/m2
17:50 3.2 °C -1 °C 1018.5 hPa East 1.6 km/h 1.6 km/h 74% 0 mm 0 W/m2
17:56 3.1 °C -0.9 °C 1018.5 hPa East 1.6 km/h 4.8 km/h 75% 0 mm 0 W/m2
18:08 3.2 °C -0.8 °C 1018.8 hPa East 1.6 km/h 4.8 km/h 75% 0 mm 0 W/m2
18:14 3.2 °C -0.8 °C 1018.8 hPa East 1.6 km/h 1.6 km/h 75% 0 mm 0 W/m2
18:20 3.1 °C -0.9 °C 1018.8 hPa ENE 1.6 km/h 1.6 km/h 75% 0 mm 0 W/m2
18:26 3.1 °C -0.9 °C 1018.8 hPa ENE 1.6 km/h 1.6 km/h 75% 0 mm 0 W/m2
18:38 2.9 °C -1.1 °C 1018.8 hPa Calm   3.2 km/h 75% 0 mm 0 W/m2
18:44 2.9 °C -0.9 °C 1018.8 hPa Calm     76% 0 mm 0 W/m2
18:50 2.9 °C -0.9 °C 1018.8 hPa Calm     76% 0 mm 0 W/m2
18:56 2.9 °C -0.9 °C 1018.8 hPa Calm   1.6 km/h 76% 0 mm 0 W/m2
19:03 2.8 °C -1.1 °C 1018.8 hPa Calm     76% 0 mm 0 W/m2
19:08 2.7 °C -0.9 °C 1018.8 hPa ENE 1.6 km/h 3.2 km/h 77% 0 mm 0 W/m2
19:14 2.6 °C -1.1 °C 1018.8 hPa ENE 1.6 km/h 1.6 km/h 77% 0 mm 0 W/m2
19:20 2.6 °C -1.1 °C 1018.8 hPa ENE 1.6 km/h 1.6 km/h 77% 0 mm 0 W/m2
19:26 2.4 °C -1 °C 1018.8 hPa Calm   3.2 km/h 78% 0 mm 0 W/m2
19:32 2.3 °C -1.1 °C 1018.8 hPa ENE 1.6 km/h 1.6 km/h 78% 0 mm 0 W/m2
19:38 2.2 °C -1.1 °C 1018.8 hPa Calm   3.2 km/h 79% 0 mm 0 W/m2
19:44 2.3 °C -1 °C 1018.8 hPa ENE 1.6 km/h 1.6 km/h 79% 0 mm 0 W/m2
19:50 2.2 °C -1.1 °C 1018.8 hPa Calm     79% 0 mm 0 W/m2
19:56 2.1 °C -1.2 °C 1018.5 hPa Calm     79% 0 mm 0 W/m2
20:02 2.1 °C -1 °C 1018.5 hPa Calm     80% 0 mm 0 W/m2
20:08 2.2 °C -0.9 °C 1018.8 hPa Calm     80% 0 mm 0 W/m2
20:14 2.3 °C -0.8 °C 1018.5 hPa ENE 1.6 km/h 3.2 km/h 80% 0 mm 0 W/m2
20:20 2.2 °C -1.1 °C 1018.5 hPa ENE 1.6 km/h 1.6 km/h 79% 0 mm 0 W/m2
20:26 2.2 °C -0.9 °C 1018.8 hPa ENE 1.6 km/h 1.6 km/h 80% 0 mm 0 W/m2
20:32 2.2 °C -0.9 °C 1018.5 hPa ENE 1.6 km/h 1.6 km/h 80% 0 mm 0 W/m2
20:38 2.2 °C -0.9 °C 1018.8 hPa Calm   1.6 km/h 80% 0 mm 0 W/m2
20:44 2.1 °C -1 °C 1018.5 hPa Calm     80% 0 mm 0 W/m2
20:50 2.1 °C -1.1 °C 1018.5 hPa Calm   1.6 km/h 80% 0 mm 0 W/m2
20:56 2.1 °C -1.1 °C 1018.5 hPa Calm   1.6 km/h 80% 0 mm 0 W/m2
21:02 1.9 °C -1 °C 1018.5 hPa Calm   1.6 km/h 81% 0 mm 0 W/m2
21:08 1.8 °C -1.1 °C 1018.5 hPa Calm   1.6 km/h 81% 0 mm 0 W/m2
21:14 1.8 °C -1.1 °C 1018.5 hPa Calm     81% 0 mm 0 W/m2
21:20 1.9 °C -1.1 °C 1018.5 hPa Calm   3.2 km/h 81% 0 mm 0 W/m2
21:26 1.8 °C -1.1 °C 1018.5 hPa Calm   3.2 km/h 81% 0 mm 0 W/m2
21:32 1.9 °C -1.1 °C 1018.5 hPa ENE 1.6 km/h 1.6 km/h 81% 0 mm 0 W/m2
21:38 1.8 °C -1.1 °C 1018.5 hPa ENE 1.6 km/h 3.2 km/h 81% 0 mm 0 W/m2
21:44 1.8 °C -0.9 °C 1018.5 hPa Calm     82% 0 mm 0 W/m2
22:02 1.6 °C -1 °C 1018.5 hPa ENE 1.6 km/h 1.6 km/h 83% 0 mm 0 W/m2
22:08 1.7 °C -0.9 °C 1018.5 hPa ENE 1.6 km/h 1.6 km/h 83% 0 mm 0 W/m2
22:14 1.8 °C -0.8 °C 1018.5 hPa Calm   3.2 km/h 83% 0 mm 0 W/m2
22:20 1.7 °C -0.8 °C 1018.5 hPa ENE 1.6 km/h 1.6 km/h 83% 0 mm 0 W/m2
22:26 1.6 °C -0.8 °C 1018.5 hPa Calm   1.6 km/h 84% 0 mm 0 W/m2
22:32 1.7 °C -0.7 °C 1018.5 hPa Calm     84% 0 mm 0 W/m2
22:38 1.7 °C -0.7 °C 1018.5 hPa ENE 1.6 km/h 3.2 km/h 84% 0 mm 0 W/m2
22:44 1.7 °C -0.7 °C 1018.5 hPa ENE 1.6 km/h 1.6 km/h 84% 0 mm 0 W/m2
22:50 1.8 °C -0.6 °C 1018.5 hPa ENE 1.6 km/h 1.6 km/h 84% 0 mm 0 W/m2
22:56 1.7 °C -0.7 °C 1018.5 hPa ENE 1.6 km/h 1.6 km/h 84% 0 mm 0 W/m2
23:08 1.8 °C -0.6 °C 1018.5 hPa ENE 1.6 km/h 3.2 km/h 84% 0 mm 0 W/m2
23:14 1.8 °C -0.6 °C 1018.5 hPa East 1.6 km/h 4.8 km/h 84% 0 mm 0 W/m2
23:20 1.9 °C -0.6 °C 1018.5 hPa East 1.6 km/h 3.2 km/h 84% 0 mm 0 W/m2
23:26 1.9 °C -0.6 °C 1018.5 hPa East 3.2 km/h 4.8 km/h 84% 0 mm 0 W/m2
23:32 1.9 °C -0.6 °C 1018.5 hPa East 1.6 km/h 1.6 km/h 84% 0 mm 0 W/m2
23:40 1.7 °C -0.7 °C 1018.5 hPa East 1.6 km/h 3.2 km/h 84% 0 mm 0 W/m2
23:46 1.5 °C -0.7 °C 1018.5 hPa East 1.6 km/h 3.2 km/h 85% 0 mm 0 W/m2
23:52 1.4 °C -0.7 °C 1018.5 hPa East 1.6 km/h 3.2 km/h 86% 0 mm 0 W/m2
Country Meadow, Clay, NY, USA
Compliments of Weather Underground - 2 mb